Current Weather Conditions: station PLSF1

sailwx.info

Wind from 130 at 15 knots gusting 17

Air temperature 24.9° C

Last reported at 2019-Dec-09 03:45 UTC.
Time now 2019-Dec-09 05:17 UTC

Location: N 24°41' W 082°46'.
View on Google Maps.

See reports from other nearby stations

  
Tides and Currents Weather Stations Pressure Air Temp Water Temp Dewpoint Dewpoint Depression Visibility Wind Speed Wind Dir Waves Ship Positions
date/time (UTC)wind fromknots sea level pressurealtimeterstation pressurevisibilityair tempwater tempwave heightnotes
2019-Dec-09 03:45 130 15 gusting 17 24.9
2019-Dec-09 02:45 110 14 gusting 15 24.5
2019-Dec-09 01:45 120 17 gusting 18 24.5
2019-Dec-09 00:45 120 15 gusting 17 24.4
2019-Dec-08 23:45 110 15 gusting 17 24.2
2019-Dec-08 22:45 110 17 gusting 19 24.0
2019-Dec-08 21:45 090 15 gusting 18 24.3
2019-Dec-08 20:45 090 14 gusting 17 24.3
2019-Dec-08 19:45 090 14 gusting 15 24.2
2019-Dec-08 18:45 090 13 gusting 14 24.2
2019-Dec-08 17:45 110 13 gusting 15 24.2
2019-Dec-08 16:45 110 13 gusting 14 24.2
2019-Dec-08 15:45 100 13 gusting 15 24.2
2019-Dec-08 14:45 110 13 gusting 14 24.1
2019-Dec-08 13:45 100 14 gusting 15 23.8
2019-Dec-08 12:45 100 12 gusting 13 23.7
2019-Dec-08 11:45 100 13 gusting 13 23.2
2019-Dec-08 10:45 110 11 gusting 13 23.1
2019-Dec-08 09:45 130 9 gusting 11 23.0
2019-Dec-08 08:45 100 8 gusting 9 22.9
2019-Dec-08 07:45 100 9 gusting 11 22.8
2019-Dec-08 06:45 110 6 gusting 7 22.7
2019-Dec-08 05:45 090 6 gusting 8 22.7
2019-Dec-08 04:45 080 5 gusting 6 22.6
2019-Dec-08 03:45 070 6 gusting 6 22.7
2019-Dec-08 02:45 090 5 gusting 5 22.5
2019-Dec-08 01:45 110 5 gusting 5 22.6
2019-Dec-08 00:45 070 6 gusting 7 22.8
2019-Dec-07 23:45 070 6 gusting 6 23.1
2019-Dec-07 22:45 360 2 gusting 4 23.1
2019-Dec-07 21:45 070 2 gusting 4 23.8
2019-Dec-07 20:45 040 1 gusting 2 24.1
2019-Dec-07 19:45 050 4 gusting 5 23.7
2019-Dec-07 18:45 070 4 gusting 6 23.5
2019-Dec-07 17:45 050 4 gusting 5 23.3
2019-Dec-07 16:45 080 5 gusting 6 23.3
2019-Dec-07 15:45 070 2 gusting 4 23.3
2019-Dec-07 14:45 090 1 gusting 2 23.8
2019-Dec-07 13:45 24.1
2019-Dec-07 12:45 030 0 gusting 1 22.7
2019-Dec-07 11:45 22.1
2019-Dec-07 10:45 190 2 gusting 4 22.3
2019-Dec-07 09:45 160 4 gusting 5 22.3
2019-Dec-07 08:45 130 6 gusting 6 22.3
2019-Dec-07 07:45 120 6 gusting 7 22.4
2019-Dec-07 06:45 100 6 gusting 7 22.4
2019-Dec-07 05:45 080 6 gusting 7 22.5